Time;durP1;ratioP1;P1;durP2;ratioP2;P2;SDS_P1;SDS_P2;PMS_P1;PMS_P2;Temp;Humidity;BMP_temperature;BMP_pressure;BME280_temperature;BME280_humidity;BME280_pressure;Samples;Min_cycle;Max_cycle;Signal;HPM_P1;HPM_P2
2024/01/19 00:00:59;;;;;;;17.20;11.37;;;;;;;;;;4995272;28;20251;-86
2024/01/19 00:03:26;;;;;;;13.07;9.17;;;;;;;;;;4995604;28;20205;-86
2024/01/19 00:05:53;;;;;;;19.33;11.70;;;;;;;;;;4994933;28;20244;-86
2024/01/19 00:08:22;;;;;;;14.27;9.40;;;;;;;;;;4995637;28;20209;-85
2024/01/19 00:10:49;;;;;;;15.83;11.53;;;;;;;;;;4995408;28;20336;-85
2024/01/19 00:13:16;;;;;;;15.73;9.80;;;;;;;;;;4995520;28;20203;-86
2024/01/19 00:15:43;;;;;;;16.37;11.10;;;;;;;;;;4995113;28;20241;-86
2024/01/19 00:18:10;;;;;;;19.30;12.47;;;;;;;;;;4995615;28;20238;-86
2024/01/19 00:20:37;;;;;;;20.37;11.37;;;;;;;;;;4995495;28;20237;-86
2024/01/19 00:23:04;;;;;;;22.87;10.93;;;;;;;;;;4997652;28;20208;-86
2024/01/19 00:25:33;;;;;;;17.77;11.20;;;;;;;;;;4999410;28;20237;-86
2024/01/19 00:28:00;;;;;;;12.73;9.07;;;;;;;;;;4999287;28;20218;-86
2024/01/19 00:30:27;;;;;;;21.90;13.10;;;;;;;;;;5000303;28;20240;-86
2024/01/19 00:32:54;;;;;;;19.63;11.27;;;;;;;;;;4995286;28;20214;-86
2024/01/19 00:35:21;;;;;;;23.23;10.53;;;;;;;;;;4994728;28;20205;-86
2024/01/19 00:37:48;;;;;;;14.93;10.63;;;;;;;;;;4995121;28;20641;-86
2024/01/19 00:40:15;;;;;;;19.70;10.97;;;;;;;;;;4994383;28;20230;-86
2024/01/19 00:42:44;;;;;;;21.77;13.20;;;;;;;;;;4994852;28;20215;-86
2024/01/19 00:45:11;;;;;;;17.43;11.70;;;;;;;;;;4994263;28;20287;-86
2024/01/19 00:47:38;;;;;;;15.57;11.10;;;;;;;;;;4994212;28;20673;-86
2024/01/19 00:50:06;;;;;;;18.37;11.13;;;;;;;;;;4994410;28;20234;-85
2024/01/19 00:52:33;;;;;;;15.07;9.30;;;;;;;;;;4995023;28;20216;-86
2024/01/19 00:55:00;;;;;;;21.17;11.93;;;;;;;;;;4994588;28;20207;-86
2024/01/19 00:57:27;;;;;;;17.07;10.80;;;;;;;;;;4994109;28;20868;-86
2024/01/19 00:59:55;;;;;;;18.83;11.90;;;;;;;;;;4994495;28;20204;-85
2024/01/19 01:02:27;;;;;;;11.83;8.13;;;;;;;;;;4994104;28;20240;-86
2024/01/19 01:04:54;;;;;;;15.13;10.20;;;;;;;;;;4994699;28;20213;-85
2024/01/19 01:07:21;;;;;;;17.23;11.13;;;;;;;;;;4993522;28;20247;-86
2024/01/19 01:09:48;;;;;;;14.83;11.53;;;;;;;;;;4994518;28;20696;-85
2024/01/19 01:12:15;;;;;;;13.37;10.17;;;;;;;;;;4993646;28;20244;-86
2024/01/19 01:14:42;;;;;;;19.87;10.93;;;;;;;;;;4994244;28;20237;-85
2024/01/19 01:17:12;;;;;;;14.03;10.23;;;;;;;;;;4993607;28;20238;-86
2024/01/19 01:19:39;;;;;;;15.27;10.40;;;;;;;;;;4993986;28;20208;-86
2024/01/19 01:22:06;;;;;;;18.43;10.60;;;;;;;;;;4993841;28;20594;-86
2024/01/19 01:24:33;;;;;;;17.27;10.37;;;;;;;;;;4994699;28;20221;-86
2024/01/19 01:27:00;;;;;;;17.13;10.57;;;;;;;;;;4994413;28;20240;-86
2024/01/19 01:29:27;;;;;;;16.90;11.17;;;;;;;;;;4994147;28;20700;-85
2024/01/19 01:31:54;;;;;;;12.87;9.93;;;;;;;;;;4999712;28;20248;-85
2024/01/19 01:34:22;;;;;;;19.23;10.40;;;;;;;;;;4993880;28;20199;-86
2024/01/19 01:36:49;;;;;;;21.27;10.03;;;;;;;;;;4993413;28;20282;-86
2024/01/19 01:39:16;;;;;;;13.90;9.47;;;;;;;;;;4993862;28;20213;-85
2024/01/19 01:41:44;;;;;;;16.10;11.03;;;;;;;;;;4992996;28;20254;-85
2024/01/19 01:44:11;;;;;;;12.17;8.27;;;;;;;;;;4994007;28;20214;-85
2024/01/19 01:46:38;;;;;;;14.33;10.23;;;;;;;;;;4993154;28;20237;-86
2024/01/19 01:49:06;;;;;;;18.73;10.43;;;;;;;;;;4993613;28;20255;-86
2024/01/19 01:51:35;;;;;;;17.90;9.43;;;;;;;;;;4993218;28;20660;-86
2024/01/19 01:54:03;;;;;;;16.70;10.37;;;;;;;;;;4993463;28;20613;-85
2024/01/19 01:56:30;;;;;;;12.03;8.83;;;;;;;;;;4993029;28;20243;-85
2024/01/19 01:58:58;;;;;;;12.57;6.37;;;;;;;;;;4989914;28;20205;-85
2024/01/19 02:01:25;;;;;;;13.23;8.53;;;;;;;;;;4992716;28;20248;-86
2024/01/19 02:03:53;;;;;;;16.43;9.13;;;;;;;;;;4993173;28;20703;-86
2024/01/19 02:06:20;;;;;;;23.57;9.13;;;;;;;;;;5003262;28;20266;-86
2024/01/19 02:08:48;;;;;;;12.53;8.13;;;;;;;;;;5001520;28;20654;-86
2024/01/19 02:11:15;;;;;;;15.33;9.30;;;;;;;;;;4992769;28;20294;-86
2024/01/19 02:13:42;;;;;;;11.80;8.73;;;;;;;;;;4993666;28;20213;-86
2024/01/19 02:16:09;;;;;;;11.43;7.50;;;;;;;;;;4993129;28;20287;-85
2024/01/19 02:18:36;;;;;;;11.73;9.20;;;;;;;;;;4993284;28;20211;-85
2024/01/19 02:21:04;;;;;;;13.30;8.73;;;;;;;;;;4993017;28;20236;-85
2024/01/19 02:23:33;;;;;;;12.07;8.90;;;;;;;;;;4993327;28;20208;-85
2024/01/19 02:26:02;;;;;;;13.63;8.77;;;;;;;;;;5000817;28;20242;-86
2024/01/19 02:28:29;;;;;;;10.23;8.03;;;;;;;;;;5012271;28;20212;-85
2024/01/19 02:30:56;;;;;;;14.47;8.67;;;;;;;;;;5012082;28;20652;-85
2024/01/19 02:33:23;;;;;;;14.37;10.07;;;;;;;;;;5012778;28;20263;-86
2024/01/19 02:35:50;;;;;;;20.30;10.13;;;;;;;;;;5012222;28;20236;-85
2024/01/19 02:38:17;;;;;;;13.67;8.47;;;;;;;;;;5012574;28;20208;-86
2024/01/19 02:40:44;;;;;;;14.90;9.27;;;;;;;;;;5011954;28;20254;-85
2024/01/19 02:43:12;;;;;;;12.97;8.27;;;;;;;;;;5012993;28;20217;-86
2024/01/19 02:45:39;;;;;;;11.73;7.90;;;;;;;;;;5012425;28;20234;-86
2024/01/19 02:48:07;;;;;;;10.30;8.53;;;;;;;;;;5012858;28;20584;-86
2024/01/19 02:50:34;;;;;;;11.77;7.33;;;;;;;;;;5012429;28;20235;-85
2024/01/19 02:53:01;;;;;;;13.80;8.53;;;;;;;;;;5013176;28;20611;-86
2024/01/19 02:55:28;;;;;;;14.47;8.83;;;;;;;;;;5012325;28;20726;-85
2024/01/19 02:57:55;;;;;;;10.53;8.57;;;;;;;;;;5012447;28;20212;-86
2024/01/19 03:00:23;;;;;;;13.50;9.90;;;;;;;;;;5012652;28;20226;-86
2024/01/19 03:02:50;;;;;;;12.57;9.60;;;;;;;;;;5012760;28;20220;-85
2024/01/19 03:05:17;;;;;;;15.13;8.67;;;;;;;;;;5021465;28;20207;-85
2024/01/19 03:07:44;;;;;;;9.47;8.03;;;;;;;;;;5029058;28;20227;-85
2024/01/19 03:10:11;;;;;;;12.53;8.37;;;;;;;;;;5028755;28;20223;-85
2024/01/19 03:12:38;;;;;;;10.03;7.43;;;;;;;;;;5032462;28;20200;-86
2024/01/19 03:15:06;;;;;;;12.07;8.80;;;;;;;;;;5028169;28;20215;-85
2024/01/19 03:17:34;;;;;;;11.40;9.00;;;;;;;;;;5026069;28;20207;-86
2024/01/19 03:20:01;;;;;;;13.70;9.17;;;;;;;;;;5020738;28;20234;-86
2024/01/19 03:22:29;;;;;;;10.43;8.40;;;;;;;;;;5016159;28;20223;-85
2024/01/19 03:24:56;;;;;;;11.80;8.00;;;;;;;;;;5015782;28;20215;-84
2024/01/19 03:27:23;;;;;;;11.13;8.33;;;;;;;;;;5014996;28;20242;-86
2024/01/19 03:29:50;;;;;;;12.50;8.93;;;;;;;;;;5015665;28;20271;-85
2024/01/19 03:32:17;;;;;;;20.50;9.90;;;;;;;;;;5015471;28;20235;-86
2024/01/19 03:34:46;;;;;;;11.10;9.20;;;;;;;;;;5015635;28;20302;-86
2024/01/19 03:37:13;;;;;;;8.80;7.77;;;;;;;;;;5014752;28;20231;-86
2024/01/19 03:39:40;;;;;;;13.23;8.43;;;;;;;;;;5015369;28;20199;-86
2024/01/19 03:42:07;;;;;;;10.40;7.93;;;;;;;;;;5014834;28;20239;-86
2024/01/19 03:44:34;;;;;;;15.30;10.43;;;;;;;;;;5015340;28;20267;-85
2024/01/19 03:47:01;;;;;;;12.80;9.20;;;;;;;;;;5014711;28;20616;-85
2024/01/19 03:49:28;;;;;;;14.63;9.33;;;;;;;;;;5015383;28;20215;-85
2024/01/19 03:51:59;;;;;;;12.80;8.57;;;;;;;;;;5014918;28;20721;-85
2024/01/19 03:54:26;;;;;;;14.40;8.77;;;;;;;;;;5015689;28;20207;-86
2024/01/19 03:56:53;;;;;;;21.00;8.57;;;;;;;;;;5014838;28;20235;-85
2024/01/19 03:59:20;;;;;;;13.13;8.57;;;;;;;;;;5015282;28;20282;-85
2024/01/19 04:01:47;;;;;;;10.40;8.23;;;;;;;;;;5014710;28;20246;-85
2024/01/19 04:04:14;;;;;;;12.80;6.63;;;;;;;;;;5015177;28;20266;-86
2024/01/19 04:06:41;;;;;;;14.37;9.33;;;;;;;;;;5014548;28;20239;-86
2024/01/19 04:09:10;;;;;;;11.37;9.57;;;;;;;;;;5015359;28;20208;-86
2024/01/19 04:11:37;;;;;;;12.40;7.23;;;;;;;;;;5014577;28;20289;-86
2024/01/19 04:14:04;;;;;;;9.73;8.43;;;;;;;;;;5014985;28;20204;-86
2024/01/19 04:16:31;;;;;;;14.50;8.60;;;;;;;;;;5014641;28;20230;-86
2024/01/19 04:18:58;;;;;;;14.47;7.83;;;;;;;;;;5014829;28;20259;-86
2024/01/19 04:21:25;;;;;;;9.83;7.40;;;;;;;;;;5014037;28;20243;-86
2024/01/19 04:23:52;;;;;;;12.23;9.13;;;;;;;;;;5014824;28;20580;-85
2024/01/19 04:26:21;;;;;;;10.00;7.53;;;;;;;;;;5014095;28;20236;-86
2024/01/19 04:28:48;;;;;;;10.53;7.47;;;;;;;;;;5014306;28;20682;-85
2024/01/19 04:31:15;;;;;;;9.33;8.00;;;;;;;;;;5014139;28;20243;-86
2024/01/19 04:33:42;;;;;;;12.93;9.43;;;;;;;;;;5015157;28;20218;-85
2024/01/19 04:36:09;;;;;;;12.63;8.47;;;;;;;;;;5014141;28;20651;-86
2024/01/19 04:38:36;;;;;;;14.23;8.63;;;;;;;;;;5017054;28;20215;-86
2024/01/19 04:41:03;;;;;;;12.50;9.03;;;;;;;;;;5019175;28;20239;-85
2024/01/19 04:43:32;;;;;;;13.60;8.33;;;;;;;;;;5014768;28;20294;-86
2024/01/19 04:45:59;;;;;;;6.53;6.03;;;;;;;;;;5014488;28;20780;-85
2024/01/19 04:48:26;;;;;;;9.03;7.23;;;;;;;;;;5014409;28;20227;-85
2024/01/19 04:50:53;;;;;;;11.53;7.80;;;;;;;;;;5014088;28;20261;-86
2024/01/19 04:53:20;;;;;;;12.87;7.03;;;;;;;;;;5015711;28;20704;-86
2024/01/19 04:55:47;;;;;;;16.57;9.03;;;;;;;;;;5015479;28;20297;-85
2024/01/19 04:58:14;;;;;;;14.50;7.47;;;;;;;;;;5015655;28;20199;-86
2024/01/19 05:00:42;;;;;;;12.37;7.73;;;;;;;;;;5015397;28;20233;-85
2024/01/19 05:03:09;;;;;;;8.13;6.43;;;;;;;;;;5014339;28;20258;-86
2024/01/19 05:05:36;;;;;;;10.93;8.03;;;;;;;;;;5014023;28;20235;-86
2024/01/19 05:08:04;;;;;;;10.27;6.97;;;;;;;;;;5014155;28;20227;-85
2024/01/19 05:10:32;;;;;;;11.90;8.07;;;;;;;;;;5013440;28;20235;-86
2024/01/19 05:12:59;;;;;;;8.73;6.97;;;;;;;;;;5014258;28;20265;-86
2024/01/19 05:15:26;;;;;;;8.93;7.47;;;;;;;;;;5013483;28;20235;-86
2024/01/19 05:17:56;;;;;;;16.33;9.07;;;;;;;;;;5014220;28;20231;-85
2024/01/19 05:20:23;;;;;;;12.43;8.73;;;;;;;;;;5013466;28;20253;-85
2024/01/19 05:22:51;;;;;;;15.33;8.37;;;;;;;;;;5014572;28;20218;-85
2024/01/19 05:25:18;;;;;;;13.23;9.13;;;;;;;;;;5014754;28;20196;-85
2024/01/19 05:27:45;;;;;;;11.47;8.67;;;;;;;;;;5014225;28;20246;-84
2024/01/19 05:30:13;;;;;;;12.97;6.47;;;;;;;;;;5013656;28;20277;-85
2024/01/19 05:32:40;;;;;;;9.53;6.50;;;;;;;;;;5013606;28;20203;-84
2024/01/19 05:35:09;;;;;;;13.57;7.67;;;;;;;;;;5012270;28;20219;-85
2024/01/19 05:37:36;;;;;;;11.20;8.07;;;;;;;;;;5013277;28;20241;-84
2024/01/19 05:40:04;;;;;;;10.97;7.87;;;;;;;;;;5011800;28;20228;-84
2024/01/19 05:42:31;;;;;;;10.93;7.33;;;;;;;;;;5013159;28;20203;-83
2024/01/19 05:44:58;;;;;;;15.10;7.40;;;;;;;;;;5013545;28;20210;-84
2024/01/19 05:47:25;;;;;;;10.07;6.93;;;;;;;;;;5012380;28;20243;-84
2024/01/19 05:49:52;;;;;;;16.67;8.40;;;;;;;;;;5013295;28;20207;-84
2024/01/19 05:52:22;;;;;;;13.23;7.70;;;;;;;;;;5012671;28;20327;-84
2024/01/19 05:54:49;;;;;;;14.03;9.47;;;;;;;;;;5012873;28;20207;-84
2024/01/19 05:57:16;;;;;;;10.70;6.60;;;;;;;;;;5012234;28;20614;-84
2024/01/19 05:59:43;;;;;;;10.73;7.17;;;;;;;;;;5012770;28;20201;-85
2024/01/19 06:02:10;;;;;;;8.90;8.00;;;;;;;;;;5012528;28;20718;-85
2024/01/19 06:04:38;;;;;;;9.60;7.93;;;;;;;;;;5013054;28;20211;-85
2024/01/19 06:07:05;;;;;;;9.30;7.23;;;;;;;;;;5012343;28;20235;-85
2024/01/19 06:09:34;;;;;;;14.77;9.03;;;;;;;;;;5013099;28;20713;-85
2024/01/19 06:12:01;;;;;;;15.30;8.00;;;;;;;;;;5012047;28;20245;-83
2024/01/19 06:14:29;;;;;;;10.73;8.50;;;;;;;;;;5012682;28;20290;-83
2024/01/19 06:16:56;;;;;;;10.97;7.63;;;;;;;;;;5011998;28;20241;-83
2024/01/19 06:19:23;;;;;;;14.03;8.17;;;;;;;;;;5012421;28;20219;-82
2024/01/19 06:21:50;;;;;;;16.57;7.90;;;;;;;;;;5011837;28;20239;-82
2024/01/19 06:24:18;;;;;;;9.97;7.30;;;;;;;;;;5012401;28;20555;-83
2024/01/19 06:26:46;;;;;;;12.27;7.77;;;;;;;;;;5012188;28;20238;-83
2024/01/19 06:29:13;;;;;;;11.63;8.03;;;;;;;;;;5012591;28;20215;-83
2024/01/19 06:31:44;;;;;;;10.37;7.97;;;;;;;;;;5012125;28;20285;-84
2024/01/19 06:34:11;;;;;;;8.77;7.60;;;;;;;;;;5012906;28;20209;-85
2024/01/19 06:36:38;;;;;;;11.97;7.67;;;;;;;;;;5012182;28;20239;-85
2024/01/19 06:39:07;;;;;;;7.40;6.70;;;;;;;;;;5012784;28;20290;-85
2024/01/19 06:41:34;;;;;;;7.83;7.13;;;;;;;;;;5011666;28;20248;-83
2024/01/19 06:44:05;;;;;;;9.80;7.57;;;;;;;;;;5012100;28;20206;-83
2024/01/19 06:46:32;;;;;;;13.20;8.17;;;;;;;;;;5015563;28;20247;-84
2024/01/19 06:48:59;;;;;;;8.20;7.40;;;;;;;;;;5016119;28;20632;-83
2024/01/19 06:51:28;;;;;;;13.07;8.70;;;;;;;;;;5015622;28;20719;-83
2024/01/19 06:53:55;;;;;;;12.67;8.00;;;;;;;;;;5016713;28;20252;-84
2024/01/19 06:56:22;;;;;;;9.87;7.03;;;;;;;;;;5020809;28;20244;-83
2024/01/19 06:58:49;;;;;;;7.23;6.47;;;;;;;;;;5016384;28;20208;-85
2024/01/19 07:01:18;;;;;;;8.20;7.10;;;;;;;;;;5015649;28;20717;-84
2024/01/19 07:03:45;;;;;;;8.83;7.50;;;;;;;;;;5016063;28;20210;-83
2024/01/19 07:06:12;;;;;;;8.33;6.23;;;;;;;;;;5015650;28;20245;-84
2024/01/19 07:08:39;;;;;;;9.07;7.30;;;;;;;;;;5015739;28;20264;-83
2024/01/19 07:11:06;;;;;;;10.03;7.67;;;;;;;;;;5015718;28;20297;-84
2024/01/19 07:13:33;;;;;;;12.63;7.40;;;;;;;;;;5015858;28;20208;-84
2024/01/19 07:16:00;;;;;;;8.20;7.23;;;;;;;;;;5015331;28;20239;-84
2024/01/19 07:18:29;;;;;;;8.37;6.87;;;;;;;;;;5015911;28;20206;-83
2024/01/19 07:20:56;;;;;;;13.37;7.83;;;;;;;;;;5015347;28;20241;-84
2024/01/19 07:23:23;;;;;;;11.07;8.70;;;;;;;;;;5016097;28;20345;-83
2024/01/19 07:25:50;;;;;;;10.27;7.13;;;;;;;;;;5015375;28;20238;-84
2024/01/19 07:28:17;;;;;;;8.83;6.87;;;;;;;;;;5015190;28;20351;-84
2024/01/19 07:30:44;;;;;;;11.33;8.17;;;;;;;;;;5015170;28;20683;-84
2024/01/19 07:33:11;;;;;;;11.00;8.07;;;;;;;;;;5016009;28;20207;-83
2024/01/19 07:35:39;;;;;;;11.17;7.33;;;;;;;;;;5015670;28;20235;-84
2024/01/19 07:38:06;;;;;;;12.77;8.30;;;;;;;;;;5015546;28;20288;-83
2024/01/19 07:40:33;;;;;;;8.90;7.70;;;;;;;;;;5015922;28;20232;-84
2024/01/19 07:43:00;;;;;;;16.33;8.93;;;;;;;;;;5016371;28;20219;-84
2024/01/19 07:45:28;;;;;;;13.50;9.33;;;;;;;;;;5016395;28;20237;-85
2024/01/19 07:47:55;;;;;;;8.37;6.83;;;;;;;;;;5016396;28;20721;-84
2024/01/19 07:50:22;;;;;;;10.27;5.13;;;;;;;;;;5020820;28;20227;-84
2024/01/19 07:52:50;;;;;;;13.73;8.93;;;;;;;;;;5017449;28;20639;-84
2024/01/19 07:55:18;;;;;;;14.23;8.83;;;;;;;;;;5015787;28;20230;-85
2024/01/19 07:57:45;;;;;;;16.13;10.20;;;;;;;;;;5015487;28;20209;-83
2024/01/19 08:00:13;;;;;;;23.40;12.63;;;;;;;;;;5015702;28;20267;-83
2024/01/19 08:02:41;;;;;;;18.00;10.77;;;;;;;;;;5016554;28;20668;-82
2024/01/19 08:05:08;;;;;;;15.53;8.80;;;;;;;;;;5016317;28;20702;-83
2024/01/19 08:07:37;;;;;;;19.20;10.53;;;;;;;;;;5016128;28;20232;-83
2024/01/19 08:10:06;;;;;;;14.63;9.37;;;;;;;;;;5016557;28;20225;-83
2024/01/19 08:12:33;;;;;;;10.87;7.80;;;;;;;;;;5017043;28;20278;-83
2024/01/19 08:15:00;;;;;;;14.33;9.63;;;;;;;;;;5016929;28;20213;-83
2024/01/19 08:17:27;;;;;;;9.93;5.50;;;;;;;;;;5015910;28;20244;-84
2024/01/19 08:19:54;;;;;;;6.40;5.50;;;;;;;;;;5016002;28;20200;-84
2024/01/19 08:22:21;;;;;;;14.93;9.73;;;;;;;;;;5015460;28;20232;-83
2024/01/19 08:24:48;;;;;;;28.87;12.00;;;;;;;;;;5016438;28;20359;-83
2024/01/19 08:27:17;;;;;;;18.00;13.30;;;;;;;;;;5015524;28;20235;-83
2024/01/19 08:29:47;;;;;;;20.07;13.90;;;;;;;;;;5015926;28;20208;-83
2024/01/19 08:32:14;;;;;;;13.27;10.93;;;;;;;;;;5015504;28;20643;-83
2024/01/19 08:34:41;;;;;;;17.40;10.40;;;;;;;;;;5015971;28;20258;-82
2024/01/19 08:37:08;;;;;;;18.97;10.13;;;;;;;;;;5015242;28;20298;-84
2024/01/19 08:39:35;;;;;;;14.43;9.57;;;;;;;;;;5015921;28;20204;-84
2024/01/19 08:42:02;;;;;;;17.20;10.60;;;;;;;;;;5016353;28;20272;-84
2024/01/19 08:44:30;;;;;;;16.23;10.90;;;;;;;;;;5017216;28;20212;-84
2024/01/19 08:46:58;;;;;;;15.13;10.67;;;;;;;;;;5015870;28;20259;-85
2024/01/19 08:49:25;;;;;;;17.87;12.40;;;;;;;;;;5016302;28;20267;-85
2024/01/19 08:51:53;;;;;;;24.93;15.60;;;;;;;;;;5015370;28;20289;-85
2024/01/19 08:54:20;;;;;;;15.27;12.13;;;;;;;;;;5015778;28;20208;-84
2024/01/19 08:56:47;;;;;;;17.80;12.37;;;;;;;;;;5014687;28;20243;-85
2024/01/19 08:59:17;;;;;;;16.77;10.00;;;;;;;;;;5015632;28;20243;-84
2024/01/19 09:01:46;;;;;;;17.90;11.67;;;;;;;;;;5014476;28;20235;-84
2024/01/19 09:04:13;;;;;;;20.17;13.83;;;;;;;;;;5015415;28;20236;-84
2024/01/19 09:06:40;;;;;;;16.60;12.47;;;;;;;;;;5014943;28;20240;-84
2024/01/19 09:09:08;;;;;;;15.50;11.30;;;;;;;;;;5014008;28;20315;-83
2024/01/19 09:11:35;;;;;;;16.87;9.57;;;;;;;;;;5014839;28;20718;-82
2024/01/19 09:14:02;;;;;;;15.43;11.50;;;;;;;;;;5014984;28;20208;-82
2024/01/19 09:16:29;;;;;;;19.40;11.07;;;;;;;;;;5014437;28;20321;-83
2024/01/19 09:18:58;;;;;;;21.57;11.57;;;;;;;;;;5014942;28;20220;-83
2024/01/19 09:21:25;;;;;;;16.97;10.07;;;;;;;;;;5014548;28;20241;-83
2024/01/19 09:23:53;;;;;;;22.10;12.13;;;;;;;;;;5014657;28;20204;-83
2024/01/19 09:26:20;;;;;;;20.70;12.03;;;;;;;;;;5014325;28;20241;-82
2024/01/19 09:28:48;;;;;;;19.37;12.13;;;;;;;;;;5014272;28;20221;-83
2024/01/19 09:31:15;;;;;;;19.30;10.83;;;;;;;;;;5014087;28;20241;-82
2024/01/19 09:33:42;;;;;;;23.37;12.67;;;;;;;;;;5015555;28;20221;-83
2024/01/19 09:36:10;;;;;;;22.70;13.33;;;;;;;;;;5015583;28;20233;-82
2024/01/19 09:38:38;;;;;;;23.73;13.90;;;;;;;;;;5015669;28;20214;-83
2024/01/19 09:41:07;;;;;;;20.00;11.63;;;;;;;;;;5014425;28;20323;-83
2024/01/19 09:43:35;;;;;;;19.70;13.20;;;;;;;;;;5014419;28;20275;-83
2024/01/19 09:46:06;;;;;;;20.57;13.10;;;;;;;;;;5013396;28;20260;-84
2024/01/19 09:48:35;;;;;;;23.20;12.10;;;;;;;;;;5013246;28;20290;-83
2024/01/19 09:51:06;;;;;;;18.53;11.50;;;;;;;;;;5013278;28;20248;-83
2024/01/19 09:53:38;;;;;;;18.03;12.03;;;;;;;;;;5012717;28;20192;-83
2024/01/19 09:56:07;;;;;;;18.43;11.63;;;;;;;;;;5012244;28;20261;-83
2024/01/19 09:58:34;;;;;;;19.47;11.43;;;;;;;;;;5012796;28;20206;-82
2024/01/19 10:01:02;;;;;;;16.50;9.03;;;;;;;;;;5011827;28;20243;-83
2024/01/19 10:03:29;;;;;;;20.13;11.67;;;;;;;;;;4996212;28;20200;-83
2024/01/19 10:05:56;;;;;;;15.90;9.40;;;;;;;;;;4992195;28;20245;-83
2024/01/19 10:08:23;;;;;;;6.23;5.30;;;;;;;;;;4992255;28;20597;-83
2024/01/19 10:10:53;;;;;;;12.97;8.50;;;;;;;;;;4991913;28;20314;-82
2024/01/19 10:13:20;;;;;;;20.47;10.37;;;;;;;;;;4992595;28;20207;-82
2024/01/19 10:15:47;;;;;;;13.43;9.70;;;;;;;;;;4992327;28;20235;-82
2024/01/19 10:18:14;;;;;;;11.40;7.93;;;;;;;;;;4992762;28;20208;-83
2024/01/19 10:20:42;;;;;;;16.77;10.57;;;;;;;;;;4991645;28;20247;-82
2024/01/19 10:23:22;;;;;;;5.80;4.57;;;;;;;;;;4992823;28;20212;-82
2024/01/19 10:25:49;;;;;;;20.90;13.73;;;;;;;;;;4992346;28;20235;-82
2024/01/19 10:28:34;;;;;;;15.37;9.53;;;;;;;;;;4992305;28;20278;-82
2024/01/19 10:31:15;;;;;;;11.43;8.47;;;;;;;;;;4992107;28;20606;-82
2024/01/19 10:33:49;;;;;;;13.17;10.17;;;;;;;;;;4992760;28;20207;-83
2024/01/19 10:36:16;;;;;;;15.43;10.17;;;;;;;;;;4991840;28;20243;-82
2024/01/19 10:38:43;;;;;;;21.23;9.47;;;;;;;;;;4992165;28;20258;-82
2024/01/19 10:41:15;;;;;;;14.80;10.17;;;;;;;;;;4991693;28;20302;-82
2024/01/19 10:43:44;;;;;;;19.70;10.50;;;;;;;;;;4992088;28;20626;-82
2024/01/19 10:46:20;;;;;;;16.93;9.90;;;;;;;;;;4991803;28;20274;-82
2024/01/19 10:48:50;;;;;;;14.27;9.97;;;;;;;;;;4992144;28;20700;-82
2024/01/19 10:51:17;;;;;;;14.70;10.50;;;;;;;;;;4991799;28;20323;-82
2024/01/19 10:53:45;;;;;;;21.87;10.23;;;;;;;;;;4992268;28;20208;-83
2024/01/19 10:56:18;;;;;;;11.63;8.97;;;;;;;;;;4991977;28;20311;-82
2024/01/19 10:58:46;;;;;;;14.37;8.37;;;;;;;;;;4992228;28;20199;-82
2024/01/19 11:01:14;;;;;;;10.30;6.90;;;;;;;;;;4995923;28;20244;-82
2024/01/19 11:03:41;;;;;;;16.73;10.37;;;;;;;;;;4992484;28;20694;-83
2024/01/19 11:06:08;;;;;;;13.03;8.53;;;;;;;;;;4992039;28;20319;-82
2024/01/19 11:08:35;;;;;;;17.43;9.43;;;;;;;;;;4992113;28;20644;-82
2024/01/19 11:11:05;;;;;;;16.77;10.43;;;;;;;;;;4991697;28;20298;-82
2024/01/19 11:13:35;;;;;;;15.00;9.70;;;;;;;;;;4992087;28;20749;-83
2024/01/19 11:16:08;;;;;;;15.80;9.10;;;;;;;;;;4991796;28;20279;-83
2024/01/19 11:18:35;;;;;;;13.63;9.23;;;;;;;;;;4992047;28;20561;-82
2024/01/19 11:21:03;;;;;;;11.43;8.37;;;;;;;;;;4991562;28;20244;-82
2024/01/19 11:23:30;;;;;;;13.37;9.27;;;;;;;;;;4992057;28;20217;-82
2024/01/19 11:26:03;;;;;;;13.90;9.10;;;;;;;;;;4991505;28;20231;-82
2024/01/19 11:28:35;;;;;;;10.20;6.67;;;;;;;;;;4991559;28;20190;-83
2024/01/19 11:31:13;;;;;;;10.13;7.27;;;;;;;;;;4991447;28;20416;-83
2024/01/19 11:33:40;;;;;;;9.60;7.83;;;;;;;;;;4995093;28;20192;-83
2024/01/19 11:36:07;;;;;;;10.73;7.43;;;;;;;;;;4994912;28;20240;-83
2024/01/19 11:38:44;;;;;;;13.37;8.73;;;;;;;;;;4995122;28;20244;-82
2024/01/19 11:41:11;;;;;;;13.80;8.17;;;;;;;;;;4994699;28;20241;-82
2024/01/19 11:43:39;;;;;;;10.00;6.90;;;;;;;;;;4995177;28;20267;-83
2024/01/19 11:46:06;;;;;;;10.97;8.07;;;;;;;;;;4994478;28;20237;-82
2024/01/19 11:48:41;;;;;;;13.40;9.07;;;;;;;;;;4994976;28;20213;-82
2024/01/19 11:51:09;;;;;;;6.40;5.27;;;;;;;;;;4994409;28;20292;-83
2024/01/19 11:53:54;;;;;;;11.83;8.47;;;;;;;;;;4994840;28;20600;-83
2024/01/19 11:56:22;;;;;;;9.87;7.47;;;;;;;;;;4994478;28;20241;-82
2024/01/19 11:58:49;;;;;;;11.00;7.47;;;;;;;;;;4994710;28;20639;-82
2024/01/19 12:01:16;;;;;;;12.43;7.83;;;;;;;;;;4994460;28;20251;-82
2024/01/19 12:03:45;;;;;;;17.17;8.60;;;;;;;;;;4994829;28;20212;-82
2024/01/19 12:06:12;;;;;;;8.17;7.20;;;;;;;;;;4994385;28;20239;-82
2024/01/19 12:08:39;;;;;;;12.93;7.20;;;;;;;;;;4994282;28;20214;-82
2024/01/19 12:11:10;;;;;;;16.80;8.47;;;;;;;;;;4994300;28;20243;-82
2024/01/19 12:13:39;;;;;;;13.23;8.47;;;;;;;;;;4994881;28;20269;-82
2024/01/19 12:16:06;;;;;;;15.20;5.03;;;;;;;;;;4994363;28;20253;-82
2024/01/19 12:18:35;;;;;;;11.67;7.27;;;;;;;;;;4994377;28;20615;-82
2024/01/19 12:21:04;;;;;;;9.50;6.63;;;;;;;;;;4994140;28;20249;-82
2024/01/19 12:23:33;;;;;;;11.43;8.30;;;;;;;;;;4994371;28;20602;-82
2024/01/19 12:26:00;;;;;;;18.50;10.30;;;;;;;;;;4994043;28;20270;-82
2024/01/19 12:28:28;;;;;;;8.23;5.47;;;;;;;;;;4994398;28;20210;-82
2024/01/19 12:30:56;;;;;;;14.00;8.53;;;;;;;;;;4993750;28;20242;-82
2024/01/19 12:33:25;;;;;;;5.60;4.97;;;;;;;;;;4994539;28;20311;-82
2024/01/19 12:36:03;;;;;;;12.33;8.10;;;;;;;;;;4993667;28;20265;-82
2024/01/19 12:38:31;;;;;;;12.87;8.70;;;;;;;;;;4993805;28;20215;-82
2024/01/19 12:40:58;;;;;;;10.20;6.53;;;;;;;;;;4993327;28;20298;-82
2024/01/19 12:43:29;;;;;;;13.67;7.63;;;;;;;;;;4993814;28;20218;-82
2024/01/19 12:46:01;;;;;;;8.20;6.73;;;;;;;;;;4993573;28;20249;-82
2024/01/19 12:48:28;;;;;;;7.53;6.47;;;;;;;;;;4993689;28;20252;-82
2024/01/19 12:50:55;;;;;;;7.23;4.73;;;;;;;;;;4993390;28;20302;-82
2024/01/19 12:53:22;;;;;;;10.13;5.87;;;;;;;;;;4993769;28;20204;-82
2024/01/19 12:55:51;;;;;;;5.57;4.87;;;;;;;;;;4993259;28;20242;-82
2024/01/19 12:58:23;;;;;;;16.77;6.03;;;;;;;;;;4993637;28;20558;-82
2024/01/19 13:00:50;;;;;;;8.37;5.30;;;;;;;;;;4993377;28;20263;-82
2024/01/19 13:03:19;;;;;;;8.07;6.00;;;;;;;;;;4993522;28;20204;-82
2024/01/19 13:05:46;;;;;;;9.80;5.57;;;;;;;;;;4993099;28;20297;-82
2024/01/19 13:08:13;;;;;;;9.10;5.70;;;;;;;;;;4993182;28;20683;-82
2024/01/19 13:10:40;;;;;;;9.93;6.73;;;;;;;;;;4992909;28;20239;-82
2024/01/19 13:13:09;;;;;;;4.40;3.80;;;;;;;;;;4993527;28;20235;-82
2024/01/19 13:15:36;;;;;;;10.70;5.90;;;;;;;;;;4993121;28;20239;-82
2024/01/19 13:18:07;;;;;;;6.80;5.43;;;;;;;;;;4993326;28;20206;-82
2024/01/19 13:20:34;;;;;;;10.77;6.70;;;;;;;;;;4992896;28;20247;-82
2024/01/19 13:23:01;;;;;;;12.37;6.80;;;;;;;;;;4993195;28;20247;-82
2024/01/19 13:25:29;;;;;;;9.97;6.40;;;;;;;;;;4992657;28;20599;-82
2024/01/19 13:27:57;;;;;;;10.87;6.53;;;;;;;;;;4993110;28;20300;-82
2024/01/19 13:30:28;;;;;;;5.37;4.97;;;;;;;;;;4992450;28;20753;-82
2024/01/19 13:32:55;;;;;;;9.60;6.47;;;;;;;;;;4993011;28;20710;-82
2024/01/19 13:35:22;;;;;;;10.67;5.83;;;;;;;;;;4992792;28;20216;-82
2024/01/19 13:37:49;;;;;;;9.07;5.27;;;;;;;;;;4993057;28;20243;-83
2024/01/19 13:40:16;;;;;;;7.17;5.33;;;;;;;;;;4992323;28;20228;-82
2024/01/19 13:42:43;;;;;;;10.00;5.80;;;;;;;;;;4992674;28;20223;-82
2024/01/19 13:45:11;;;;;;;7.67;5.53;;;;;;;;;;4992357;28;20244;-82
2024/01/19 13:47:39;;;;;;;8.80;6.13;;;;;;;;;;4992610;28;20715;-83
2024/01/19 13:50:06;;;;;;;9.37;5.87;;;;;;;;;;4992503;28;20235;-83
2024/01/19 13:52:34;;;;;;;10.47;7.53;;;;;;;;;;4992788;28;20247;-82
2024/01/19 13:55:01;;;;;;;6.17;4.87;;;;;;;;;;4992467;28;20307;-83
2024/01/19 13:57:28;;;;;;;8.83;6.00;;;;;;;;;;4992261;28;20570;-83
2024/01/19 13:59:55;;;;;;;17.63;9.27;;;;;;;;;;4992686;28;20265;-82
2024/01/19 14:02:23;;;;;;;13.70;8.27;;;;;;;;;;4992282;28;20232;-83
2024/01/19 14:04:51;;;;;;;8.90;6.57;;;;;;;;;;4992892;28;20215;-83
2024/01/19 14:07:20;;;;;;;10.60;6.67;;;;;;;;;;4992563;28;20240;-83
2024/01/19 14:09:49;;;;;;;9.17;6.93;;;;;;;;;;4992741;28;20226;-83
2024/01/19 14:12:17;;;;;;;3.03;2.83;;;;;;;;;;4991972;28;20270;-83
2024/01/19 14:14:44;;;;;;;7.73;6.40;;;;;;;;;;4992664;28;20208;-82
2024/01/19 14:17:13;;;;;;;12.67;5.77;;;;;;;;;;4991925;28;20240;-83
2024/01/19 14:19:40;;;;;;;8.13;5.57;;;;;;;;;;4992690;28;20203;-82
2024/01/19 14:22:08;;;;;;;12.13;7.80;;;;;;;;;;4991899;28;20240;-83
2024/01/19 14:24:35;;;;;;;10.83;6.83;;;;;;;;;;4992337;28;20208;-83
2024/01/19 14:27:03;;;;;;;9.33;6.23;;;;;;;;;;4991788;28;20236;-83
2024/01/19 14:29:30;;;;;;;10.10;6.43;;;;;;;;;;4992245;28;20219;-82
2024/01/19 14:31:57;;;;;;;12.63;6.47;;;;;;;;;;4991757;28;20247;-83